Time;durP1;ratioP1;P1;durP2;ratioP2;P2;SDS_P1;SDS_P2;PMS_P1;PMS_P2;Temp;Humidity;BMP_temperature;BMP_pressure;BME280_temperature;BME280_humidity;BME280_pressure;Samples;Min_cycle;Max_cycle;Signal;HPM_P1;HPM_P2
2022/06/09 00:01:35;;;;;;;5.78;2.00;;;;;;;;;;5105849;27;20391;-75
2022/06/09 00:04:18;;;;;;;6.20;2.28;;;;;;;;;;5106823;27;20110;-72
2022/06/09 00:06:49;;;;;;;;;;;;;;;;;;5101407;27;20544;-75
2022/06/09 00:09:17;;;;;;;5.20;1.92;;;;;;;;;;5107818;28;20321;-74
2022/06/09 00:11:47;;;;;;;7.55;2.30;;;;;;;;;;5099953;27;20103;-73
2022/06/09 00:14:13;;;;;;;7.28;2.10;;;;;;;;;;5106000;27;20491;-76
2022/06/09 00:16:39;;;;;;;8.35;2.22;;;;;;;;;;5100605;27;20027;-73
2022/06/09 00:19:05;;;;;;;7.70;2.00;;;;;;;;;;5104915;27;20019;-73
2022/06/09 00:21:32;;;;;;;5.75;1.73;;;;;;;;;;5103326;28;20031;-75
2022/06/09 00:23:58;;;;;;;6.28;2.25;;;;;;;;;;5104296;27;20024;-75
2022/06/09 00:26:23;;;;;;;6.95;2.03;;;;;;;;;;5104041;27;20053;-73
2022/06/09 00:28:49;;;;;;;5.50;2.17;;;;;;;;;;5106222;27;20031;-72
2022/06/09 00:31:15;;;;;;;6.35;2.13;;;;;;;;;;5102534;27;20019;-75
2022/06/09 00:33:40;;;;;;;6.63;1.90;;;;;;;;;;5105965;28;20038;-74
2022/06/09 00:36:06;;;;;;;5.22;1.77;;;;;;;;;;5102820;27;20051;-74
2022/06/09 00:38:31;;;;;;;5.85;1.98;;;;;;;;;;5100706;28;20111;-73
2022/06/09 00:40:59;;;;;;;6.47;2.45;;;;;;;;;;5105078;27;20106;-72
2022/06/09 00:43:27;;;;;;;5.32;1.92;;;;;;;;;;5099887;28;20031;-74
2022/06/09 00:46:05;;;;;;;7.85;2.10;;;;;;;;;;5103871;28;20042;-74
2022/06/09 00:48:39;;;;;;;5.68;1.92;;;;;;;;;;5105683;27;20384;-73
2022/06/09 00:51:13;;;;;;;7.00;2.05;;;;;;;;;;5104849;27;20020;-72
2022/06/09 00:53:40;;;;;;;5.88;2.03;;;;;;;;;;5101001;28;20040;-73
2022/06/09 00:56:08;;;;;;;8.57;2.00;;;;;;;;;;5098804;27;20517;-73
2022/06/09 00:58:38;;;;;;;6.47;1.88;;;;;;;;;;5106173;27;20027;-73
2022/06/09 01:01:07;;;;;;;8.27;1.90;;;;;;;;;;5101989;28;20034;-75
2022/06/09 01:03:43;;;;;;;8.80;1.98;;;;;;;;;;5106908;28;20400;-74
2022/06/09 01:06:12;;;;;;;6.53;2.28;;;;;;;;;;5108090;28;20031;-73
2022/06/09 01:08:50;;;;;;;4.25;1.88;;;;;;;;;;5097922;28;20048;-73
2022/06/09 01:11:16;;;;;;;8.25;1.98;;;;;;;;;;5098176;27;20035;-75
2022/06/09 01:13:42;;;;;;;9.75;2.47;;;;;;;;;;5101143;27;20042;-73
2022/06/09 01:16:33;;;;;;;9.77;2.00;;;;;;;;;;5103005;27;20020;-73
2022/06/09 01:19:13;;;;;;;8.18;2.35;;;;;;;;;;5097873;27;20035;-74
2022/06/09 01:21:54;;;;;;;5.55;1.80;;;;;;;;;;5101710;27;20054;-72
2022/06/09 01:24:41;;;;;;;5.90;2.45;;;;;;;;;;5104868;28;20034;-74
2022/06/09 01:27:45;;;;;;;9.23;2.15;;;;;;;;;;5116000;27;20483;-74
2022/06/09 01:30:20;;;;;;;10.98;2.60;;;;;;;;;;5073100;28;20066;-72
2022/06/09 01:32:58;;;;;;;9.90;2.08;;;;;;;;;;5104693;28;20031;-72
2022/06/09 01:35:31;;;;;;;7.93;2.28;;;;;;;;;;5100686;28;20423;-74
2022/06/09 01:37:59;;;;;;;11.75;2.28;;;;;;;;;;5098502;27;20031;-73
2022/06/09 01:40:25;;;;;;;8.63;2.53;;;;;;;;;;5097905;27;20024;-74
2022/06/09 01:42:54;;;;;;;8.60;2.15;;;;;;;;;;5098596;27;20027;-74
2022/06/09 01:45:47;;;;;;;6.65;2.45;;;;;;;;;;5097642;27;20060;-72
2022/06/09 01:48:18;;;;;;;7.70;2.53;;;;;;;;;;5101760;28;20061;-73
2022/06/09 01:50:54;;;;;;;5.95;2.40;;;;;;;;;;5102457;28;20442;-73
2022/06/09 01:53:35;;;;;;;7.30;2.25;;;;;;;;;;5102511;28;20031;-73
2022/06/09 01:56:08;;;;;;;10.50;2.40;;;;;;;;;;5098297;28;20070;-74
2022/06/09 01:58:45;;;;;;;8.10;2.40;;;;;;;;;;5096519;28;20024;-74
2022/06/09 02:01:13;;;;;;;9.18;2.67;;;;;;;;;;5096820;27;20035;-73
2022/06/09 02:03:41;;;;;;;8.15;2.75;;;;;;;;;;5097219;28;20024;-74
2022/06/09 02:06:08;;;;;;;7.90;2.30;;;;;;;;;;5100498;27;20395;-73
2022/06/09 02:08:35;;;;;;;6.32;2.50;;;;;;;;;;5101493;28;21283;-73
2022/06/09 02:11:06;;;;;;;7.68;2.42;;;;;;;;;;5103117;27;20027;-75
2022/06/09 02:13:39;;;;;;;8.63;2.42;;;;;;;;;;5099954;28;20036;-72
2022/06/09 02:16:07;;;;;;;7.82;2.17;;;;;;;;;;5102256;28;20036;-75
2022/06/09 02:18:37;;;;;;;8.80;2.47;;;;;;;;;;5098936;27;20737;-72
2022/06/09 02:21:30;;;;;;;8.43;2.53;;;;;;;;;;5106809;28;20440;-74
2022/06/09 02:23:55;;;;;;;7.85;2.42;;;;;;;;;;5089547;28;20047;-75
2022/06/09 02:26:21;;;;;;;8.77;2.35;;;;;;;;;;5101208;28;20376;-72
2022/06/09 02:28:47;;;;;;;7.90;2.20;;;;;;;;;;5098782;28;20023;-75
2022/06/09 02:31:13;;;;;;;6.78;2.20;;;;;;;;;;5097544;28;20043;-74
2022/06/09 02:33:38;;;;;;;10.23;2.83;;;;;;;;;;5100160;27;20479;-73
2022/06/09 02:36:04;;;;;;;8.82;3.60;;;;;;;;;;5099640;28;20043;-75
2022/06/09 02:38:29;;;;;;;8.82;3.60;;;;;;;;;;5100366;28;20028;-73
2022/06/09 02:40:55;;;;;;;10.27;3.08;;;;;;;;;;5101177;28;20035;-72
2022/06/09 02:43:22;;;;;;;9.73;2.70;;;;;;;;;;5104296;28;20357;-72
2022/06/09 02:45:48;;;;;;;9.43;3.10;;;;;;;;;;5102649;28;20028;-71
2022/06/09 02:48:13;;;;;;;9.85;3.10;;;;;;;;;;5098917;28;20023;-74
2022/06/09 02:50:40;;;;;;;10.32;3.60;;;;;;;;;;5099450;28;20032;-73
2022/06/09 02:53:06;;;;;;;9.57;2.92;;;;;;;;;;5101989;28;20027;-74
2022/06/09 02:55:32;;;;;;;10.65;3.50;;;;;;;;;;5101344;28;20683;-73
2022/06/09 02:57:58;;;;;;;10.52;3.60;;;;;;;;;;5100458;28;20042;-75
2022/06/09 03:00:23;;;;;;;10.52;3.47;;;;;;;;;;5097945;28;20055;-72
2022/06/09 03:02:55;;;;;;;12.38;3.40;;;;;;;;;;5104170;28;20404;-72
2022/06/09 03:05:21;;;;;;;8.18;3.33;;;;;;;;;;5100028;28;20023;-71
2022/06/09 03:07:47;;;;;;;12.27;3.78;;;;;;;;;;5101307;28;20053;-75
2022/06/09 03:10:13;;;;;;;11.65;3.67;;;;;;;;;;5096093;28;20023;-71
2022/06/09 03:12:38;;;;;;;8.55;3.28;;;;;;;;;;5101463;28;20027;-73
2022/06/09 03:15:07;;;;;;;17.88;4.97;;;;;;;;;;5101356;28;20016;-74
2022/06/09 03:17:34;;;;;;;10.18;4.07;;;;;;;;;;5100353;28;20020;-75
2022/06/09 03:19:59;;;;;;;12.63;3.58;;;;;;;;;;5094383;28;20055;-73
2022/06/09 03:22:25;;;;;;;7.78;3.17;;;;;;;;;;5100112;28;20079;-73
2022/06/09 03:24:50;;;;;;;12.63;3.75;;;;;;;;;;5096148;28;20020;-74
2022/06/09 03:27:15;;;;;;;12.75;3.53;;;;;;;;;;5099172;28;20080;-74
2022/06/09 03:29:41;;;;;;;10.45;3.70;;;;;;;;;;5104229;28;20028;-74
2022/06/09 03:32:06;;;;;;;11.13;4.00;;;;;;;;;;5098965;28;20051;-73
2022/06/09 03:34:32;;;;;;;10.02;3.58;;;;;;;;;;5099891;28;20051;-73
2022/06/09 03:36:57;;;;;;;10.80;3.58;;;;;;;;;;5102511;28;20024;-73
2022/06/09 03:39:23;;;;;;;11.93;3.88;;;;;;;;;;5100022;28;20055;-74
2022/06/09 03:41:48;;;;;;;9.20;3.60;;;;;;;;;;5102253;28;20387;-72
2022/06/09 03:44:13;;;;;;;9.27;3.20;;;;;;;;;;5098729;28;20055;-73
2022/06/09 03:46:39;;;;;;;13.90;4.38;;;;;;;;;;5102507;28;20026;-72
2022/06/09 03:49:05;;;;;;;11.00;3.75;;;;;;;;;;5102880;28;20019;-73
2022/06/09 03:51:30;;;;;;;9.38;3.60;;;;;;;;;;5100524;28;20069;-75
2022/06/09 03:53:56;;;;;;;10.88;3.55;;;;;;;;;;5099162;28;20415;-73
2022/06/09 03:56:22;;;;;;;10.98;3.47;;;;;;;;;;5101335;28;20487;-74
2022/06/09 03:58:48;;;;;;;9.77;3.20;;;;;;;;;;5097591;28;20028;-75
2022/06/09 04:01:17;;;;;;;12.98;3.38;;;;;;;;;;5096487;28;20039;-74
2022/06/09 04:03:44;;;;;;;10.75;3.60;;;;;;;;;;5092697;28;20038;-75
2022/06/09 04:06:23;;;;;;;10.10;3.45;;;;;;;;;;5100662;28;20051;-73
2022/06/09 04:08:50;;;;;;;8.00;3.30;;;;;;;;;;5105548;28;20043;-73
2022/06/09 04:11:17;;;;;;;11.32;3.40;;;;;;;;;;5102540;28;20479;-73
2022/06/09 04:13:43;;;;;;;9.85;3.67;;;;;;;;;;5099407;28;20062;-74
2022/06/09 04:16:31;;;;;;;11.48;3.47;;;;;;;;;;5106803;28;20436;-74
2022/06/09 04:18:59;;;;;;;11.35;3.30;;;;;;;;;;5097949;28;20016;-74
2022/06/09 04:21:27;;;;;;;10.77;3.55;;;;;;;;;;5106041;28;20042;-73
2022/06/09 04:23:53;;;;;;;11.77;3.75;;;;;;;;;;5097153;28;20122;-75
2022/06/09 04:26:21;;;;;;;11.35;3.67;;;;;;;;;;5100617;28;20610;-72
2022/06/09 04:28:46;;;;;;;9.48;3.30;;;;;;;;;;5101388;28;20032;-74
2022/06/09 04:31:13;;;;;;;10.90;3.38;;;;;;;;;;5105005;28;20043;-72
2022/06/09 04:33:39;;;;;;;11.32;3.65;;;;;;;;;;5099802;27;20074;-72
2022/06/09 04:36:06;;;;;;;9.63;3.53;;;;;;;;;;5101333;28;20484;-75
2022/06/09 04:38:32;;;;;;;12.23;3.90;;;;;;;;;;5102575;27;20035;-74
2022/06/09 04:40:58;;;;;;;8.30;3.50;;;;;;;;;;5108566;28;20437;-73
2022/06/09 04:43:23;;;;;;;10.07;3.67;;;;;;;;;;5106316;27;20125;-74
2022/06/09 04:45:48;;;;;;;8.52;3.25;;;;;;;;;;5099811;28;20387;-72
2022/06/09 04:48:14;;;;;;;14.07;4.03;;;;;;;;;;5106074;28;22330;-73
2022/06/09 04:50:42;;;;;;;9.13;3.72;;;;;;;;;;5111996;27;21609;-74
2022/06/09 04:53:09;;;;;;;10.35;3.28;;;;;;;;;;5101382;27;20471;-74
2022/06/09 04:55:38;;;;;;;12.80;3.50;;;;;;;;;;5108746;27;20015;-74
2022/06/09 04:58:04;;;;;;;8.68;3.55;;;;;;;;;;5108541;28;20036;-71
2022/06/09 05:00:30;;;;;;;8.30;3.63;;;;;;;;;;5107464;27;20394;-73
2022/06/09 05:02:59;;;;;;;10.00;3.17;;;;;;;;;;5105055;27;20424;-75
2022/06/09 05:05:29;;;;;;;9.25;3.38;;;;;;;;;;5092691;27;20584;-71
2022/06/09 05:07:55;;;;;;;9.68;3.45;;;;;;;;;;5097345;28;20027;-74
2022/06/09 05:10:20;;;;;;;8.48;3.25;;;;;;;;;;5099762;28;20054;-72
2022/06/09 05:12:45;;;;;;;15.88;3.45;;;;;;;;;;5099807;27;20479;-73
2022/06/09 05:15:17;;;;;;;10.38;2.78;;;;;;;;;;5103732;28;20433;-74
2022/06/09 05:17:43;;;;;;;9.82;3.55;;;;;;;;;;5102820;28;20039;-72
2022/06/09 05:20:11;;;;;;;7.05;2.80;;;;;;;;;;5105284;28;20102;-74
2022/06/09 05:22:36;;;;;;;7.60;2.83;;;;;;;;;;5103410;28;20491;-74
2022/06/09 05:25:02;;;;;;;8.93;3.38;;;;;;;;;;5105370;28;20058;-71
2022/06/09 05:27:28;;;;;;;9.35;2.97;;;;;;;;;;5104659;28;20102;-74
2022/06/09 05:29:53;;;;;;;9.00;3.03;;;;;;;;;;5104936;28;20487;-75
2022/06/09 05:32:19;;;;;;;7.25;3.15;;;;;;;;;;5107793;27;20023;-73
2022/06/09 05:34:44;;;;;;;11.10;4.00;;;;;;;;;;5103383;27;20761;-73
2022/06/09 05:37:10;;;;;;;7.93;2.80;;;;;;;;;;5108390;28;20110;-73
2022/06/09 05:45:10;;;;;;;3.65;1.38;;;;;;;;;;5110217;28;20045;-74
2022/06/09 05:47:35;;;;;;;1.63;1.05;;;;;;;;;;5101541;27;20463;-75
2022/06/09 05:50:01;;;;;;;2.92;1.05;;;;;;;;;;5107493;27;20038;-75
2022/06/09 05:52:29;;;;;;;1.25;0.98;;;;;;;;;;5101198;28;20047;-72
2022/06/09 05:54:54;;;;;;;1.95;1.10;;;;;;;;;;5104815;28;20040;-72
2022/06/09 05:57:21;;;;;;;2.63;1.10;;;;;;;;;;5099344;28;20028;-71
2022/06/09 05:59:48;;;;;;;1.60;1.20;;;;;;;;;;5097357;27;20599;-73
2022/06/09 06:02:15;;;;;;;2.38;1.10;;;;;;;;;;5096826;28;20019;-74
2022/06/09 06:04:41;;;;;;;3.30;1.30;;;;;;;;;;5094912;27;20024;-73
2022/06/09 06:07:07;;;;;;;2.88;1.10;;;;;;;;;;5104283;28;20036;-75
2022/06/09 06:09:32;;;;;;;1.70;1.17;;;;;;;;;;5102131;28;20028;-73
2022/06/09 06:11:58;;;;;;;2.22;1.20;;;;;;;;;;5105462;28;20107;-73
2022/06/09 06:14:23;;;;;;;2.80;1.23;;;;;;;;;;5107556;28;20031;-73
2022/06/09 06:16:49;;;;;;;3.97;1.70;;;;;;;;;;5101456;28;20036;-71
2022/06/09 06:19:18;;;;;;;3.13;1.50;;;;;;;;;;5102677;27;20023;-71
2022/06/09 06:21:44;;;;;;;4.35;1.90;;;;;;;;;;5106031;28;20015;-73
2022/06/09 06:24:11;;;;;;;4.38;1.92;;;;;;;;;;5107684;28;20031;-71
2022/06/09 06:26:38;;;;;;;3.13;1.45;;;;;;;;;;5112324;28;20032;-72
2022/06/09 06:29:05;;;;;;;2.95;1.63;;;;;;;;;;5105752;28;20032;-71
2022/06/09 06:31:30;;;;;;;2.97;1.42;;;;;;;;;;5115161;27;20031;-74
2022/06/09 06:33:55;;;;;;;4.35;1.38;;;;;;;;;;5107552;28;20161;-73
2022/06/09 06:36:21;;;;;;;3.25;1.05;;;;;;;;;;5108054;28;20088;-73
2022/06/09 06:38:48;;;;;;;1.60;1.00;;;;;;;;;;5105724;28;20038;-72
2022/06/09 06:41:14;;;;;;;3.10;1.00;;;;;;;;;;5105761;28;20051;-75
2022/06/09 06:43:39;;;;;;;3.15;1.00;;;;;;;;;;5108099;28;20532;-73
2022/06/09 06:46:05;;;;;;;2.63;1.10;;;;;;;;;;5108819;28;20119;-73
2022/06/09 06:48:32;;;;;;;2.17;1.10;;;;;;;;;;5100892;28;20489;-74
2022/06/09 06:50:58;;;;;;;2.63;1.40;;;;;;;;;;5109239;28;20020;-75
2022/06/09 06:53:24;;;;;;;2.20;0.95;;;;;;;;;;5105982;28;20030;-74
2022/06/09 06:55:49;;;;;;;3.33;1.15;;;;;;;;;;5103421;28;20414;-74
2022/06/09 06:58:15;;;;;;;2.42;1.40;;;;;;;;;;5104591;28;20110;-74
2022/06/09 07:00:40;;;;;;;2.28;1.40;;;;;;;;;;5105228;28;20399;-74
2022/06/09 07:03:07;;;;;;;1.52;1.10;;;;;;;;;;5102063;28;20170;-74
2022/06/09 07:05:33;;;;;;;3.58;1.67;;;;;;;;;;5102010;27;20020;-73
2022/06/09 07:07:59;;;;;;;2.08;1.20;;;;;;;;;;5102121;28;20067;-71
2022/06/09 07:10:24;;;;;;;4.63;1.40;;;;;;;;;;5104609;28;20023;-74
2022/06/09 07:12:50;;;;;;;2.20;1.30;;;;;;;;;;5101686;28;20504;-71
2022/06/09 07:15:16;;;;;;;3.13;1.17;;;;;;;;;;5104642;28;20019;-73
2022/06/09 07:17:42;;;;;;;1.83;1.23;;;;;;;;;;5100827;28;20397;-74
2022/06/09 07:20:09;;;;;;;2.20;1.35;;;;;;;;;;5102186;28;20020;-73
2022/06/09 07:22:35;;;;;;;2.85;1.25;;;;;;;;;;5102321;28;20031;-72
2022/06/09 07:25:00;;;;;;;3.20;1.42;;;;;;;;;;5108042;28;20031;-73
2022/06/09 07:27:26;;;;;;;3.55;1.20;;;;;;;;;;5100939;28;20024;-75
2022/06/09 07:29:52;;;;;;;2.25;1.50;;;;;;;;;;5101045;28;20035;-74
2022/06/09 07:32:18;;;;;;;2.55;1.42;;;;;;;;;;5104533;28;20031;-75
2022/06/09 07:34:44;;;;;;;2.63;1.40;;;;;;;;;;5105709;28;20055;-72
2022/06/09 07:37:10;;;;;;;2.20;1.50;;;;;;;;;;5106603;28;20024;-74
2022/06/09 07:39:35;;;;;;;1.83;1.50;;;;;;;;;;5100912;28;20023;-71
2022/06/09 07:42:00;;;;;;;3.50;1.70;;;;;;;;;;5104551;28;20031;-74
2022/06/09 07:44:26;;;;;;;2.58;1.50;;;;;;;;;;5107457;28;20793;-73
2022/06/09 07:46:51;;;;;;;3.38;1.40;;;;;;;;;;5101714;28;20061;-73
2022/06/09 07:49:17;;;;;;;2.22;1.23;;;;;;;;;;5105076;28;20025;-74
2022/06/09 07:51:42;;;;;;;3.35;1.50;;;;;;;;;;5106647;28;20038;-74
2022/06/09 07:54:08;;;;;;;2.20;1.40;;;;;;;;;;5107911;28;20023;-75
2022/06/09 07:56:33;;;;;;;2.78;1.45;;;;;;;;;;5106467;28;20032;-71
2022/06/09 07:59:00;;;;;;;2.40;1.30;;;;;;;;;;5106050;28;20476;-75
2022/06/09 08:01:27;;;;;;;2.85;1.42;;;;;;;;;;5105750;28;20020;-75
2022/06/09 08:03:53;;;;;;;3.88;1.77;;;;;;;;;;5103947;28;20043;-74
2022/06/09 08:06:18;;;;;;;2.15;1.50;;;;;;;;;;5111189;27;20015;-73
2022/06/09 08:08:44;;;;;;;2.38;1.40;;;;;;;;;;5111067;27;20418;-75
2022/06/09 08:11:10;;;;;;;2.15;1.30;;;;;;;;;;5106743;28;20027;-71
2022/06/09 08:13:36;;;;;;;2.05;1.40;;;;;;;;;;5109158;27;20031;-71
2022/06/09 08:16:03;;;;;;;2.13;1.35;;;;;;;;;;5113795;28;20023;-73
2022/06/09 08:18:29;;;;;;;3.53;1.40;;;;;;;;;;5111992;27;20027;-74
2022/06/09 08:20:55;;;;;;;2.17;1.40;;;;;;;;;;5107285;28;20027;-71
2022/06/09 08:23:23;;;;;;;1.73;1.38;;;;;;;;;;5108499;28;20043;-74
2022/06/09 08:25:50;;;;;;;1.85;1.30;;;;;;;;;;5111987;28;20033;-72
2022/06/09 08:28:18;;;;;;;2.60;1.50;;;;;;;;;;5109344;28;20468;-73
2022/06/09 08:30:45;;;;;;;1.85;1.00;;;;;;;;;;5109779;28;20023;-73
2022/06/09 08:33:11;;;;;;;2.80;0.98;;;;;;;;;;5106953;28;20027;-72
2022/06/09 08:35:37;;;;;;;0.77;0.70;;;;;;;;;;5127009;27;20043;-73
2022/06/09 08:38:06;;;;;;;2.33;1.00;;;;;;;;;;5103488;28;20763;-73
2022/06/09 08:40:59;;;;;;;1.45;0.90;;;;;;;;;;5111428;27;20403;-72
2022/06/09 08:43:40;;;;;;;1.67;0.98;;;;;;;;;;5107799;27;20142;-75
2022/06/09 08:46:38;;;;;;;2.72;1.27;;;;;;;;;;5109782;27;20027;-73
2022/06/09 08:49:05;;;;;;;1.23;1.00;;;;;;;;;;5109785;28;20039;-74
2022/06/09 08:51:40;;;;;;;2.42;1.60;;;;;;;;;;5107042;27;20528;-74
2022/06/09 08:54:14;;;;;;;4.63;1.45;;;;;;;;;;5107513;28;21082;-71
2022/06/09 08:56:39;;;;;;;3.17;1.42;;;;;;;;;;5105635;28;20032;-75
2022/06/09 08:59:22;;;;;;;2.50;1.23;;;;;;;;;;5110729;28;20072;-73
2022/06/09 09:01:52;;;;;;;3.22;1.63;;;;;;;;;;5108762;27;20441;-73
2022/06/09 09:04:23;;;;;;;3.00;1.90;;;;;;;;;;5104502;27;20111;-75
2022/06/09 09:07:13;;;;;;;3.45;1.83;;;;;;;;;;5106372;28;20027;-75
2022/06/09 09:09:39;;;;;;;4.32;2.08;;;;;;;;;;5104900;28;20020;-75
2022/06/09 09:12:31;;;;;;;4.88;1.80;;;;;;;;;;5106398;27;20110;-76
2022/06/09 09:15:12;;;;;;;5.03;1.83;;;;;;;;;;5106599;27;20040;-73
2022/06/09 09:18:05;;;;;;;3.63;1.90;;;;;;;;;;5103061;28;20491;-74
2022/06/09 09:21:01;;;;;;;4.70;2.20;;;;;;;;;;5105345;27;20502;-73
2022/06/09 09:23:46;;;;;;;3.15;2.03;;;;;;;;;;5107626;28;20031;-73
2022/06/09 09:26:23;;;;;;;4.40;2.40;;;;;;;;;;5107067;28;20056;-72
2022/06/09 09:29:08;;;;;;;4.55;2.75;;;;;;;;;;5107778;28;20032;-72
2022/06/09 09:32:05;;;;;;;5.53;2.47;;;;;;;;;;5106734;28;20475;-74
2022/06/09 09:34:40;;;;;;;5.82;2.63;;;;;;;;;;5089008;28;20051;-73
2022/06/09 09:37:24;;;;;;;5.07;2.42;;;;;;;;;;5100588;27;20058;-72
2022/06/09 09:39:54;;;;;;;5.80;2.60;;;;;;;;;;5106428;27;20026;-73
2022/06/09 09:42:24;;;;;;;5.55;2.30;;;;;;;;;;5107535;28;20073;-75
2022/06/09 09:45:11;;;;;;;4.07;2.60;;;;;;;;;;5101943;27;20023;-74
2022/06/09 09:47:54;;;;;;;4.10;2.47;;;;;;;;;;5096572;28;20399;-75
2022/06/09 09:50:46;;;;;;;5.75;2.88;;;;;;;;;;5107500;28;20554;-72
2022/06/09 09:53:17;;;;;;;4.60;2.72;;;;;;;;;;5103409;28;20043;-73
2022/06/09 09:56:18;;;;;;;5.05;2.97;;;;;;;;;;5107210;28;20031;-74
2022/06/09 09:58:46;;;;;;;5.70;2.60;;;;;;;;;;5086625;28;20050;-73
2022/06/09 10:01:18;;;;;;;5.93;3.33;;;;;;;;;;5101977;27;20028;-75
2022/06/09 10:09:30;;;;;;;7.78;3.45;;;;;;;;;;5103812;27;20031;-75
2022/06/09 10:12:06;;;;;;;4.97;3.05;;;;;;;;;;5107537;28;20386;-72
2022/06/09 10:14:57;;;;;;;7.93;3.50;;;;;;;;;;5106687;28;20028;-73
2022/06/09 10:17:28;;;;;;;7.40;3.22;;;;;;;;;;5097309;28;20031;-73
2022/06/09 10:20:25;;;;;;;4.43;3.00;;;;;;;;;;5104066;28;21361;-74
2022/06/09 10:23:17;;;;;;;6.82;3.25;;;;;;;;;;5101664;28;20036;-73
2022/06/09 10:25:55;;;;;;;6.80;3.28;;;;;;;;;;5106002;28;20039;-73
2022/06/09 10:28:53;;;;;;;7.22;3.70;;;;;;;;;;5102064;27;20162;-72
2022/06/09 10:31:33;;;;;;;7.53;3.40;;;;;;;;;;5101553;28;20024;-74
2022/06/09 10:34:25;;;;;;;10.32;4.22;;;;;;;;;;5102419;28;20487;-74
2022/06/09 10:37:01;;;;;;;8.10;4.00;;;;;;;;;;5097285;28;20118;-72
2022/06/09 10:40:03;;;;;;;6.15;3.30;;;;;;;;;;5107535;28;20027;-72
2022/06/09 10:42:33;;;;;;;6.95;3.75;;;;;;;;;;5106533;28;20050;-73
2022/06/09 10:45:19;;;;;;;7.00;3.35;;;;;;;;;;5103056;27;20396;-72
2022/06/09 10:57:28;;;;;;;4.57;2.53;;;;;;;;;;5103307;28;20043;-74
2022/06/09 11:00:05;;;;;;;6.70;2.95;;;;;;;;;;5101923;28;20061;-75
2022/06/09 11:02:33;;;;;;;4.70;2.67;;;;;;;;;;5107446;28;20031;-73
2022/06/09 11:04:59;;;;;;;6.05;2.45;;;;;;;;;;5101218;28;20051;-72
2022/06/09 11:07:43;;;;;;;8.05;2.63;;;;;;;;;;5102851;28;20024;-74
2022/06/09 11:10:27;;;;;;;4.88;2.72;;;;;;;;;;5103526;28;20019;-73
2022/06/09 11:13:20;;;;;;;5.45;2.40;;;;;;;;;;5102889;28;20023;-74
2022/06/09 11:16:00;;;;;;;8.05;3.08;;;;;;;;;;5118231;28;20110;-74
2022/06/09 11:18:32;;;;;;;4.43;2.30;;;;;;;;;;5103470;28;20880;-73
2022/06/09 11:21:15;;;;;;;4.18;2.17;;;;;;;;;;5106066;28;20080;-75
2022/06/09 11:24:08;;;;;;;5.10;2.22;;;;;;;;;;5101756;28;20084;-73
2022/06/09 11:26:50;;;;;;;6.15;2.38;;;;;;;;;;5105821;28;20100;-74
2022/06/09 11:29:28;;;;;;;5.75;2.40;;;;;;;;;;5106571;28;20016;-72
2022/06/09 11:32:11;;;;;;;5.45;2.30;;;;;;;;;;5104005;28;20035;-74
2022/06/09 11:34:47;;;;;;;;;;;;;;;;;;5106334;28;20158;-74
2022/06/09 11:37:29;;;;;;;5.70;2.63;;;;;;;;;;5108630;28;20446;-73
2022/06/09 11:40:00;;;;;;;8.73;1.80;;;;;;;;;;5110391;27;20015;-71
2022/06/09 11:42:49;;;;;;;5.65;1.65;;;;;;;;;;5109325;27;20080;-73
2022/06/09 11:45:29;;;;;;;6.80;1.70;;;;;;;;;;5108503;27;20023;-73
2022/06/09 11:47:57;;;;;;;5.78;2.00;;;;;;;;;;5103982;27;20054;-74
2022/06/09 11:50:28;;;;;;;4.95;1.90;;;;;;;;;;5112384;28;20063;-75
2022/06/09 11:52:57;;;;;;;2.83;1.50;;;;;;;;;;5111778;28;20135;-72
2022/06/09 11:55:58;;;;;;;5.82;1.80;;;;;;;;;;5103564;27;20036;-74
2022/06/09 11:58:35;;;;;;;4.78;1.60;;;;;;;;;;5111480;28;20510;-73
2022/06/09 12:01:41;;;;;;;4.40;1.60;;;;;;;;;;5108391;28;20038;-75
2022/06/09 12:04:28;;;;;;;6.22;1.63;;;;;;;;;;5106255;27;20039;-72
2022/06/09 12:07:15;;;;;;;6.35;1.65;;;;;;;;;;5105858;27;20124;-74
2022/06/09 12:09:57;;;;;;;3.83;1.40;;;;;;;;;;5097496;27;20084;-72
2022/06/09 12:12:38;;;;;;;4.30;1.45;;;;;;;;;;5101062;27;20042;-72
2022/06/09 12:15:30;;;;;;;3.92;1.50;;;;;;;;;;5102662;27;20099;-72
2022/06/09 12:18:23;;;;;;;3.97;1.58;;;;;;;;;;5109498;28;20106;-75
2022/06/09 12:20:49;;;;;;;4.68;1.80;;;;;;;;;;5106182;27;20038;-73
2022/06/09 12:23:29;;;;;;;5.32;1.63;;;;;;;;;;5109694;28;20019;-74
2022/06/09 12:26:10;;;;;;;6.07;1.88;;;;;;;;;;5102201;28;20037;-74
2022/06/09 12:28:55;;;;;;;5.40;1.52;;;;;;;;;;5109230;27;20028;-74
2022/06/09 12:31:35;;;;;;;6.45;1.80;;;;;;;;;;5102225;27;20020;-74
2022/06/09 12:34:05;;;;;;;4.60;1.80;;;;;;;;;;5111438;28;20027;-72
2022/06/09 12:36:52;;;;;;;5.65;2.10;;;;;;;;;;5106119;28;20027;-75
2022/06/09 12:39:22;;;;;;;4.22;2.00;;;;;;;;;;5107608;28;20027;-74
2022/06/09 12:42:17;;;;;;;6.13;1.77;;;;;;;;;;5099487;28;20027;-73
2022/06/09 12:44:48;;;;;;;4.53;1.80;;;;;;;;;;5122322;27;20020;-72
2022/06/09 12:47:18;;;;;;;5.80;1.60;;;;;;;;;;5105817;28;20031;-73
2022/06/09 12:49:54;;;;;;;2.65;1.63;;;;;;;;;;5101370;28;20074;-74
2022/06/09 12:52:39;;;;;;;4.88;1.73;;;;;;;;;;5104489;28;20548;-74
2022/06/09 12:55:37;;;;;;;3.40;2.00;;;;;;;;;;5107528;28;20032;-73
2022/06/09 12:58:18;;;;;;;5.38;1.70;;;;;;;;;;5106378;27;20039;-73
2022/06/09 13:00:52;;;;;;;3.65;1.85;;;;;;;;;;5103115;28;20498;-75
2022/06/09 13:03:21;;;;;;;4.03;1.92;;;;;;;;;;5103573;28;20055;-74
2022/06/09 13:05:46;;;;;;;5.63;2.05;;;;;;;;;;5109655;27;20042;-75
2022/06/09 13:08:22;;;;;;;5.20;2.10;;;;;;;;;;5104778;27;20028;-72
2022/06/09 13:14:09;;;;;;;5.63;2.20;;;;;;;;;;5108650;28;20098;-73
2022/06/09 13:16:39;;;;;;;4.25;2.10;;;;;;;;;;5106713;28;20024;-73
2022/06/09 13:19:06;;;;;;;5.28;2.25;;;;;;;;;;5102276;28;20032;-74
2022/06/09 13:21:39;;;;;;;6.47;2.70;;;;;;;;;;5105071;28;20031;-73
2022/06/09 13:24:15;;;;;;;4.38;2.80;;;;;;;;;;5112747;28;20055;-73
2022/06/09 13:26:43;;;;;;;5.88;2.28;;;;;;;;;;5107761;28;20038;-75
2022/06/09 13:29:16;;;;;;;6.32;2.55;;;;;;;;;;5111532;28;20065;-72
2022/06/09 13:31:45;;;;;;;5.55;2.30;;;;;;;;;;5105100;28;21357;-73
2022/06/09 13:34:13;;;;;;;4.85;2.10;;;;;;;;;;5102287;27;20083;-74
2022/06/09 13:36:57;;;;;;;4.00;2.00;;;;;;;;;;5099968;28;20499;-73
2022/06/09 13:39:29;;;;;;;6.15;2.42;;;;;;;;;;5106007;27;20023;-74
2022/06/09 13:42:13;;;;;;;5.07;2.20;;;;;;;;;;5108457;27;20093;-73
2022/06/09 13:44:42;;;;;;;5.43;2.30;;;;;;;;;;5102838;27;20027;-74
2022/06/09 13:47:17;;;;;;;5.88;2.50;;;;;;;;;;5107519;27;20451;-73
2022/06/09 13:49:46;;;;;;;6.53;2.42;;;;;;;;;;5104722;28;20032;-74
2022/06/09 13:52:33;;;;;;;4.75;2.30;;;;;;;;;;5109106;28;20027;-74
2022/06/09 13:55:00;;;;;;;4.10;2.10;;;;;;;;;;5098713;28;20038;-74
2022/06/09 13:57:32;;;;;;;6.35;2.47;;;;;;;;;;5106066;28;20070;-73
2022/06/09 14:00:00;;;;;;;5.30;2.83;;;;;;;;;;5103178;27;20026;-74
2022/06/09 14:02:40;;;;;;;5.00;2.38;;;;;;;;;;5104173;27;20375;-74
2022/06/09 14:05:06;;;;;;;5.55;2.42;;;;;;;;;;5106554;27;20026;-76
2022/06/09 14:07:32;;;;;;;6.38;1.83;;;;;;;;;;5104409;28;20058;-74
2022/06/09 14:09:57;;;;;;;5.45;1.80;;;;;;;;;;5109611;27;20051;-74
2022/06/09 14:12:22;;;;;;;5.28;2.05;;;;;;;;;;5107977;28;20146;-72
2022/06/09 14:14:49;;;;;;;6.20;2.00;;;;;;;;;;5107299;27;20081;-73
2022/06/09 14:17:21;;;;;;;5.18;1.90;;;;;;;;;;5120786;27;20041;-74
2022/06/09 14:19:47;;;;;;;6.73;2.20;;;;;;;;;;5108387;27;20061;-74
2022/06/09 14:22:13;;;;;;;3.90;1.70;;;;;;;;;;5099852;28;20015;-74
2022/06/09 14:24:38;;;;;;;3.60;1.63;;;;;;;;;;5107833;28;20073;-75
2022/06/09 14:27:04;;;;;;;3.13;1.50;;;;;;;;;;5113060;27;20032;-75
2022/06/09 14:29:29;;;;;;;6.10;1.52;;;;;;;;;;5099014;27;21543;-74
2022/06/09 14:31:55;;;;;;;4.22;1.33;;;;;;;;;;5102013;27;20035;-75
2022/06/09 14:34:20;;;;;;;4.40;1.70;;;;;;;;;;5102783;28;20047;-73
2022/06/09 14:36:46;;;;;;;2.55;1.35;;;;;;;;;;5103092;28;20023;-74
2022/06/09 14:39:16;;;;;;;6.05;1.45;;;;;;;;;;5087110;27;20471;-75
2022/06/09 14:41:41;;;;;;;6.35;1.60;;;;;;;;;;5094874;28;20487;-72
2022/06/09 14:44:07;;;;;;;3.65;1.35;;;;;;;;;;5093085;28;20039;-74
2022/06/09 14:46:38;;;;;;;5.05;1.25;;;;;;;;;;5095619;28;20024;-74
2022/06/09 14:49:05;;;;;;;6.43;1.40;;;;;;;;;;5096015;28;20499;-74
2022/06/09 14:51:31;;;;;;;3.72;1.50;;;;;;;;;;5098938;28;20032;-74
2022/06/09 14:53:57;;;;;;;4.32;1.17;;;;;;;;;;5093249;28;20093;-73
2022/06/09 14:56:25;;;;;;;5.40;1.40;;;;;;;;;;5094958;28;20095;-74
2022/06/09 14:58:51;;;;;;;4.60;1.20;;;;;;;;;;5099227;27;20118;-75
2022/06/09 15:01:18;;;;;;;4.20;1.45;;;;;;;;;;5097527;28;20114;-74
2022/06/09 15:03:44;;;;;;;3.08;1.33;;;;;;;;;;5099640;28;20414;-73
2022/06/09 15:06:11;;;;;;;5.00;1.38;;;;;;;;;;5101618;28;20106;-74
2022/06/09 15:08:37;;;;;;;4.65;1.10;;;;;;;;;;5089199;28;20157;-74
2022/06/09 15:11:03;;;;;;;3.28;1.40;;;;;;;;;;5083300;28;20861;-72
2022/06/09 15:13:28;;;;;;;5.13;1.15;;;;;;;;;;5092455;28;20027;-75
2022/06/09 15:15:58;;;;;;;4.85;1.67;;;;;;;;;;5088428;28;20703;-74
2022/06/09 15:18:23;;;;;;;3.78;1.42;;;;;;;;;;5084777;28;20039;-74
2022/06/09 15:20:49;;;;;;;6.30;1.67;;;;;;;;;;5085416;28;20658;-75
2022/06/09 15:23:15;;;;;;;2.58;1.38;;;;;;;;;;5089043;28;20115;-75
2022/06/09 15:25:42;;;;;;;3.33;1.25;;;;;;;;;;5091147;28;20040;-73
2022/06/09 15:28:09;;;;;;;6.05;1.30;;;;;;;;;;5095028;28;20505;-75
2022/06/09 15:30:38;;;;;;;2.88;1.17;;;;;;;;;;5097326;28;20051;-74